createdAt,value
2018-12-09T00:02:23.371Z,7.40
2018-12-09T00:04:51.666Z,7.50
2018-12-09T00:07:19.964Z,7.60
2018-12-09T00:09:48.267Z,7.70
2018-12-09T00:12:16.518Z,7.70
2018-12-09T00:14:44.860Z,7.70
2018-12-09T00:17:13.237Z,7.70
2018-12-09T00:19:41.619Z,7.60
2018-12-09T00:22:09.863Z,7.60
2018-12-09T00:24:38.129Z,7.60
2018-12-09T00:27:06.480Z,7.50
2018-12-09T00:29:34.764Z,7.60
2018-12-09T00:32:03.015Z,7.60
2018-12-09T00:34:31.322Z,7.50
2018-12-09T00:36:59.653Z,7.40
2018-12-09T00:39:27.961Z,7.40
2018-12-09T00:41:56.241Z,7.30
2018-12-09T00:44:24.502Z,7.40
2018-12-09T00:46:52.800Z,7.40
2018-12-09T00:49:21.109Z,7.50
2018-12-09T00:51:49.378Z,7.50
2018-12-09T00:54:17.669Z,7.60
2018-12-09T00:56:46.010Z,7.70
2018-12-09T00:59:14.289Z,7.70
2018-12-09T01:01:42.604Z,7.70
2018-12-09T01:04:10.910Z,7.70
2018-12-09T01:06:39.198Z,7.70
2018-12-09T01:09:07.507Z,7.70
2018-12-09T01:11:35.897Z,7.70
2018-12-09T01:14:04.284Z,7.90
2018-12-09T01:16:32.601Z,7.90
2018-12-09T01:19:00.874Z,7.90
2018-12-09T01:21:29.143Z,8.00
2018-12-09T01:23:57.387Z,7.90
2018-12-09T01:26:25.633Z,8.00
2018-12-09T01:28:53.909Z,8.00
2018-12-09T01:31:22.158Z,8.10
2018-12-09T01:33:50.459Z,8.10
2018-12-09T01:36:18.753Z,8.10
2018-12-09T01:38:47.024Z,8.10
2018-12-09T01:41:15.313Z,8.20
2018-12-09T01:43:43.585Z,8.30
2018-12-09T01:46:11.866Z,8.20
2018-12-09T01:48:40.139Z,8.20
2018-12-09T01:51:08.422Z,8.20
2018-12-09T01:54:09.841Z,8.20
2018-12-09T01:56:38.384Z,8.20
2018-12-09T01:59:06.734Z,8.20
2018-12-09T02:01:35.034Z,8.20
2018-12-09T02:04:03.355Z,8.30
2018-12-09T02:06:32.114Z,8.30
2018-12-09T02:09:00.458Z,8.30
2018-12-09T02:11:28.798Z,8.40
2018-12-09T02:13:57.055Z,8.40
2018-12-09T02:16:25.339Z,8.50
2018-12-09T02:19:08.774Z,8.50
2018-12-09T02:21:37.058Z,8.50
2018-12-09T02:24:05.344Z,8.50
2018-12-09T02:26:34.159Z,8.50
2018-12-09T02:29:02.411Z,8.50
2018-12-09T02:31:30.705Z,8.60
2018-12-09T02:33:59.023Z,8.60
2018-12-09T02:36:27.318Z,8.50
2018-12-09T02:38:55.679Z,8.50
2018-12-09T02:41:23.979Z,8.50
2018-12-09T02:43:52.439Z,8.50
2018-12-09T02:46:20.706Z,8.50
2018-12-09T02:48:49.286Z,8.50
2018-12-09T02:51:17.586Z,8.50
2018-12-09T02:53:46.069Z,8.50
2018-12-09T02:56:14.334Z,8.50
2018-12-09T02:58:42.621Z,8.50
2018-12-09T03:01:10.977Z,8.50
2018-12-09T03:03:39.246Z,8.60
2018-12-09T03:06:14.047Z,8.60
2018-12-09T03:08:42.300Z,8.50
2018-12-09T03:11:10.618Z,8.60
2018-12-09T03:13:38.873Z,8.60
2018-12-09T03:16:07.161Z,8.60
2018-12-09T03:18:35.412Z,8.60
2018-12-09T03:21:03.654Z,8.60
2018-12-09T03:23:31.929Z,8.60
2018-12-09T03:26:00.287Z,8.60
2018-12-09T03:28:28.583Z,8.50
2018-12-09T03:30:56.882Z,8.50
2018-12-09T03:33:25.690Z,8.50
2018-12-09T03:35:54.068Z,8.50
2018-12-09T03:38:22.426Z,8.40
2018-12-09T03:40:50.783Z,8.40
2018-12-09T03:43:19.071Z,8.40
2018-12-09T03:45:47.503Z,8.40
2018-12-09T03:48:15.959Z,8.30
2018-12-09T03:50:44.334Z,8.20
2018-12-09T03:53:12.642Z,8.10
2018-12-09T03:55:40.918Z,8.10
2018-12-09T03:58:09.151Z,8.10
2018-12-09T04:00:37.495Z,8.10
2018-12-09T04:03:05.787Z,8.10
2018-12-09T04:05:40.637Z,8.10
2018-12-09T04:08:08.963Z,8.10
2018-12-09T04:10:37.331Z,8.10
2018-12-09T04:13:05.682Z,8.10
2018-12-09T04:15:38.272Z,8.10
2018-12-09T04:18:06.629Z,8.00
2018-12-09T04:20:34.867Z,8.00
2018-12-09T04:23:09.668Z,8.00
2018-12-09T04:25:38.016Z,8.00
2018-12-09T04:28:06.301Z,8.00
2018-12-09T04:30:34.611Z,8.00
2018-12-09T04:33:02.993Z,7.90
2018-12-09T04:35:31.331Z,7.90
2018-12-09T04:37:59.675Z,7.80
2018-12-09T04:40:28.061Z,7.90
2018-12-09T04:42:56.402Z,7.90
2018-12-09T04:45:24.675Z,8.00
2018-12-09T04:47:53.038Z,7.90
2018-12-09T04:50:21.333Z,7.90
2018-12-09T04:52:50.021Z,7.90
2018-12-09T04:55:18.398Z,7.90
2018-12-09T04:57:46.759Z,8.00
2018-12-09T05:00:26.513Z,8.00
2018-12-09T05:02:54.920Z,8.10
2018-12-09T05:05:23.174Z,8.20
2018-12-09T05:07:51.619Z,8.20
2018-12-09T05:10:19.870Z,8.20
2018-12-09T05:12:48.119Z,8.20
2018-12-09T05:15:16.412Z,8.20
2018-12-09T05:17:44.719Z,8.20
2018-12-09T05:20:12.942Z,8.20
2018-12-09T05:22:41.214Z,8.20
2018-12-09T05:25:09.494Z,8.20
2018-12-09T05:27:37.853Z,8.20
2018-12-09T05:30:06.211Z,8.20
2018-12-09T05:32:34.520Z,8.30
2018-12-09T05:35:02.809Z,8.30
2018-12-09T05:37:31.082Z,8.30
2018-12-09T05:39:59.439Z,8.30
2018-12-09T05:42:27.739Z,8.30
2018-12-09T05:44:56.044Z,8.30
2018-12-09T05:47:24.355Z,8.40
2018-12-09T05:49:53.042Z,8.40
2018-12-09T05:52:21.334Z,8.40
2018-12-09T05:54:49.726Z,8.30
2018-12-09T05:57:18.136Z,8.30
2018-12-09T05:59:46.398Z,8.30
2018-12-09T06:02:26.299Z,8.30
2018-12-09T06:04:54.609Z,8.30
2018-12-09T06:07:22.850Z,8.30
2018-12-09T06:09:51.171Z,8.30
2018-12-09T06:12:19.869Z,8.30
2018-12-09T06:14:48.265Z,8.30
2018-12-09T06:17:16.639Z,8.30
2018-12-09T06:19:44.876Z,8.30
2018-12-09T06:22:13.143Z,8.30
2018-12-09T06:24:41.941Z,8.30
2018-12-09T06:27:10.177Z,8.30
2018-12-09T06:29:38.447Z,8.30
2018-12-09T06:32:06.901Z,8.30
2018-12-09T06:34:35.200Z,8.20
2018-12-09T06:37:03.604Z,8.20
2018-12-09T06:39:31.890Z,8.10
2018-12-09T06:42:00.734Z,8.10
2018-12-09T06:44:29.198Z,8.00
2018-12-09T06:46:57.497Z,8.00
2018-12-09T06:49:25.785Z,8.00
2018-12-09T06:51:54.031Z,8.00
2018-12-09T06:54:22.437Z,8.10
2018-12-09T06:56:50.720Z,8.20
2018-12-09T06:59:19.062Z,8.20
2018-12-09T07:01:47.374Z,8.30
2018-12-09T07:04:15.721Z,8.30
2018-12-09T07:06:44.082Z,8.30
2018-12-09T07:09:12.347Z,8.40
2018-12-09T07:11:40.634Z,8.40
2018-12-09T07:14:09.370Z,8.40
2018-12-09T07:16:37.678Z,8.40
2018-12-09T07:19:06.005Z,8.40
2018-12-09T07:21:34.317Z,8.40
2018-12-09T07:24:02.642Z,8.40
2018-12-09T07:26:30.937Z,8.40
2018-12-09T07:28:59.202Z,8.40
2018-12-09T07:31:27.464Z,8.40
2018-12-09T07:33:55.752Z,8.40
2018-12-09T07:36:24.029Z,8.40
2018-12-09T07:38:52.269Z,8.40
2018-12-09T07:41:20.622Z,8.40
2018-12-09T07:43:48.876Z,8.50
2018-12-09T07:46:17.140Z,8.40
2018-12-09T07:48:45.432Z,8.40
2018-12-09T07:51:13.999Z,8.30
2018-12-09T07:53:42.315Z,8.30
2018-12-09T07:56:10.554Z,8.20
2018-12-09T07:58:38.866Z,8.30
2018-12-09T08:01:07.168Z,8.20
2018-12-09T08:03:35.525Z,8.10
2018-12-09T08:06:03.858Z,8.10
2018-12-09T08:08:32.136Z,8.00
2018-12-09T08:11:00.561Z,8.00
2018-12-09T08:13:28.798Z,7.90
2018-12-09T08:15:57.108Z,7.70
2018-12-09T08:18:25.348Z,7.60
2018-12-09T08:20:53.597Z,7.50
2018-12-09T08:23:21.879Z,7.50
2018-12-09T08:25:50.175Z,7.40
2018-12-09T08:28:18.479Z,7.30
2018-12-09T08:30:46.745Z,7.30
2018-12-09T08:33:15.048Z,7.30
2018-12-09T08:35:43.370Z,7.20
2018-12-09T08:38:11.758Z,7.20
2018-12-09T08:40:40.032Z,7.10
2018-12-09T08:43:08.309Z,7.20
2018-12-09T08:45:36.600Z,7.10
2018-12-09T08:48:04.941Z,7.10
2018-12-09T08:50:33.186Z,7.10
2018-12-09T08:53:01.455Z,7.10
2018-12-09T08:55:29.742Z,7.10
2018-12-09T08:57:58.055Z,7.00
2018-12-09T09:00:26.283Z,7.10
2018-12-09T09:02:54.570Z,7.10
2018-12-09T09:05:22.841Z,7.10
2018-12-09T09:07:51.088Z,7.10
2018-12-09T09:10:19.449Z,7.10
2018-12-09T09:12:47.733Z,7.10
2018-12-09T09:15:16.050Z,7.10
2018-12-09T09:17:45.114Z,7.10
2018-12-09T09:20:13.406Z,7.10
2018-12-09T09:22:41.708Z,7.10
2018-12-09T09:25:10.129Z,7.10
2018-12-09T09:27:38.381Z,7.10
2018-12-09T09:30:07.354Z,7.10
2018-12-09T09:32:35.669Z,7.10
2018-12-09T09:35:04.010Z,7.10
2018-12-09T09:37:32.291Z,7.20
2018-12-09T09:40:00.527Z,7.20
2018-12-09T09:42:28.821Z,7.30
2018-12-09T09:44:57.069Z,7.20
2018-12-09T09:47:25.487Z,7.10
2018-12-09T09:49:53.855Z,7.10
2018-12-09T09:52:22.124Z,7.10
2018-12-09T09:54:50.422Z,7.10
2018-12-09T09:57:18.694Z,7.10
2018-12-09T09:59:46.955Z,7.10
2018-12-09T10:02:15.265Z,7.10
2018-12-09T10:04:43.647Z,7.10
2018-12-09T10:07:11.927Z,7.10
2018-12-09T10:09:40.198Z,7.10
2018-12-09T10:12:08.581Z,7.20
2018-12-09T10:14:36.907Z,7.20
2018-12-09T10:17:05.206Z,7.20
2018-12-09T10:19:33.612Z,7.20
2018-12-09T10:22:02.136Z,7.10
2018-12-09T10:24:30.384Z,7.10
2018-12-09T10:26:58.657Z,7.20
2018-12-09T10:29:26.966Z,7.20
2018-12-09T10:31:55.286Z,7.20
2018-12-09T10:34:23.603Z,7.20
2018-12-09T10:36:51.867Z,7.20
2018-12-09T10:39:20.140Z,7.10
2018-12-09T10:41:48.429Z,7.10
2018-12-09T10:44:17.027Z,7.10
2018-12-09T10:46:46.074Z,7.10
2018-12-09T10:49:14.366Z,7.10
2018-12-09T10:51:42.701Z,7.10
2018-12-09T10:54:10.945Z,7.20
2018-12-09T10:56:39.279Z,7.20
2018-12-09T10:59:07.605Z,7.20
2018-12-09T11:01:39.623Z,7.30
2018-12-09T11:04:08.027Z,7.20
2018-12-09T11:06:36.568Z,7.20
2018-12-09T11:09:06.201Z,7.30
2018-12-09T11:11:34.559Z,7.40
2018-12-09T11:14:02.865Z,7.40
2018-12-09T11:16:31.166Z,7.50
2018-12-09T11:18:59.470Z,7.40
2018-12-09T11:21:30.875Z,7.40
2018-12-09T11:23:58.039Z,7.40
2018-12-09T11:26:26.352Z,7.50
2018-12-09T11:28:54.646Z,7.50
2018-12-09T11:31:22.912Z,7.50
2018-12-09T11:33:51.187Z,7.50
2018-12-09T11:36:19.466Z,7.50
2018-12-09T11:38:47.815Z,7.50
2018-12-09T11:41:16.127Z,7.60
2018-12-09T11:43:44.367Z,7.60
2018-12-09T11:46:12.662Z,7.60
2018-12-09T11:48:40.958Z,7.50
2018-12-09T11:51:09.277Z,7.60
2018-12-09T11:53:37.569Z,7.60
2018-12-09T11:56:06.083Z,7.60
2018-12-09T11:58:34.335Z,7.60
2018-12-09T12:01:02.594Z,7.60
2018-12-09T12:03:30.864Z,7.70
2018-12-09T12:05:59.161Z,7.70
2018-12-09T12:08:27.464Z,7.80
2018-12-09T12:10:55.766Z,7.80
2018-12-09T12:13:24.115Z,7.90
2018-12-09T12:15:52.475Z,7.90
2018-12-09T12:18:20.762Z,8.00
2018-12-09T12:20:49.048Z,8.00
2018-12-09T12:23:17.293Z,8.10
2018-12-09T12:25:45.591Z,8.20
2018-12-09T12:28:13.951Z,8.20
2018-12-09T12:30:42.193Z,8.20
2018-12-09T12:33:10.537Z,8.30
2018-12-09T12:35:38.805Z,8.30
2018-12-09T12:38:07.081Z,8.50
2018-12-09T12:40:35.380Z,8.50
2018-12-09T12:43:03.626Z,8.50
2018-12-09T12:45:31.947Z,8.50
2018-12-09T12:48:00.236Z,8.50
2018-12-09T12:50:28.513Z,8.60
2018-12-09T12:52:56.884Z,8.60
2018-12-09T12:55:25.111Z,8.60
2018-12-09T12:57:53.402Z,8.60
2018-12-09T13:00:21.731Z,8.60
2018-12-09T13:02:50.099Z,8.70
2018-12-09T13:05:18.454Z,8.70
2018-12-09T13:07:46.814Z,8.70
2018-12-09T13:10:15.219Z,8.80
2018-12-09T13:12:43.548Z,8.80
2018-12-09T13:15:11.801Z,8.90
2018-12-09T13:17:40.087Z,8.90
2018-12-09T13:20:08.858Z,8.90
2018-12-09T13:22:37.151Z,8.90
2018-12-09T13:25:06.177Z,8.90
2018-12-09T13:27:34.416Z,8.90
2018-12-09T13:30:02.706Z,8.80
2018-12-09T13:32:31.063Z,8.80
2018-12-09T13:34:59.373Z,8.90
2018-12-09T13:37:27.675Z,8.90
2018-12-09T13:39:55.939Z,8.90
2018-12-09T13:42:24.386Z,9.00
2018-12-09T13:44:52.642Z,9.00
2018-12-09T13:47:21.024Z,8.90
2018-12-09T13:49:49.325Z,9.00
2018-12-09T13:52:17.651Z,9.00
2018-12-09T13:54:45.953Z,9.00
2018-12-09T13:57:14.298Z,9.10
2018-12-09T13:59:42.564Z,9.10
2018-12-09T14:02:10.801Z,9.10
2018-12-09T14:04:39.092Z,9.10
2018-12-09T14:07:07.381Z,9.00
2018-12-09T14:09:35.705Z,9.10
2018-12-09T14:12:04.045Z,9.10
2018-12-09T14:14:32.371Z,9.00
2018-12-09T14:17:00.742Z,9.00
2018-12-09T14:19:29.023Z,9.00
2018-12-09T14:21:57.345Z,9.00
2018-12-09T14:24:25.749Z,9.10
2018-12-09T14:26:54.084Z,9.00
2018-12-09T14:29:22.353Z,9.00
2018-12-09T14:31:51.075Z,9.00
2018-12-09T14:34:19.408Z,8.90
2018-12-09T14:36:47.693Z,8.90
2018-12-09T14:39:16.027Z,8.90
2018-12-09T14:41:45.251Z,8.90
2018-12-09T14:44:13.555Z,8.90
2018-12-09T14:46:41.921Z,8.90
2018-12-09T14:49:10.258Z,8.90
2018-12-09T14:51:38.653Z,8.90
2018-12-09T14:54:07.044Z,8.90
2018-12-09T14:56:35.313Z,8.90
2018-12-09T14:59:03.564Z,8.80
2018-12-09T15:01:31.853Z,8.70
2018-12-09T15:04:00.168Z,8.50
2018-12-09T15:06:28.475Z,8.40
2018-12-09T15:08:56.734Z,8.30
2018-12-09T15:11:25.137Z,8.30
2018-12-09T15:13:53.381Z,8.40
2018-12-09T15:16:21.761Z,8.30
2018-12-09T15:18:50.065Z,8.30
2018-12-09T15:21:18.358Z,8.30
2018-12-09T15:23:46.760Z,8.30
2018-12-09T15:26:15.158Z,8.30
2018-12-09T15:28:43.429Z,8.30
2018-12-09T15:31:11.859Z,8.30
2018-12-09T15:33:40.122Z,8.20
2018-12-09T15:36:08.747Z,8.20
2018-12-09T15:38:37.061Z,8.30
2018-12-09T15:41:05.369Z,8.30
2018-12-09T15:43:33.692Z,8.30
2018-12-09T15:46:01.956Z,8.30
2018-12-09T15:48:30.278Z,8.40
2018-12-09T15:50:58.985Z,8.40
2018-12-09T15:53:27.740Z,8.40
2018-12-09T15:55:56.018Z,8.40
2018-12-09T15:58:24.326Z,8.40
2018-12-09T16:00:56.150Z,8.40
2018-12-09T16:03:24.631Z,8.40
2018-12-09T16:05:53.031Z,8.40
2018-12-09T16:08:21.259Z,8.40
2018-12-09T16:10:49.485Z,8.40
2018-12-09T16:13:17.744Z,8.40
2018-12-09T16:15:46.081Z,8.30
2018-12-09T16:18:14.365Z,8.40
2018-12-09T16:20:42.786Z,8.30
2018-12-09T16:23:11.177Z,8.30
2018-12-09T16:25:39.422Z,8.10
2018-12-09T16:28:07.711Z,8.10
2018-12-09T16:30:35.929Z,8.10
2018-12-09T16:33:04.348Z,8.10
2018-12-09T16:35:32.631Z,8.00
2018-12-09T16:38:00.897Z,7.80
2018-12-09T16:40:29.280Z,7.70
2018-12-09T16:42:57.514Z,7.60
2018-12-09T16:45:25.842Z,7.50
2018-12-09T16:47:54.204Z,7.40
2018-12-09T16:50:22.437Z,7.50
2018-12-09T16:52:50.693Z,7.40
2018-12-09T16:55:18.950Z,7.30
2018-12-09T16:57:47.360Z,7.30
2018-12-09T17:00:15.630Z,7.40
2018-12-09T17:02:43.933Z,7.40
2018-12-09T17:05:12.191Z,7.50
2018-12-09T17:07:42.252Z,7.50
2018-12-09T17:10:10.751Z,7.50
2018-12-09T17:12:39.041Z,7.50
2018-12-09T17:15:07.451Z,7.50
2018-12-09T17:17:35.768Z,7.50
2018-12-09T17:20:06.431Z,7.50
2018-12-09T17:22:34.624Z,7.50
2018-12-09T17:25:02.880Z,7.50
2018-12-09T17:27:31.217Z,7.50
2018-12-09T17:29:59.527Z,7.50
2018-12-09T17:32:27.828Z,7.50
2018-12-09T17:34:56.207Z,7.40
2018-12-09T17:37:24.501Z,7.50
2018-12-09T17:39:52.845Z,7.50
2018-12-09T17:42:21.214Z,7.40
2018-12-09T17:44:49.467Z,7.40
2018-12-09T17:47:17.809Z,7.40
2018-12-09T17:49:46.114Z,7.40
2018-12-09T17:52:14.388Z,7.40
2018-12-09T17:54:42.705Z,7.30
2018-12-09T17:57:11.077Z,7.30
2018-12-09T17:59:39.391Z,7.30
2018-12-09T18:02:07.684Z,7.30
2018-12-09T18:04:35.989Z,7.30
2018-12-09T18:07:04.270Z,7.20
2018-12-09T18:09:32.623Z,7.20
2018-12-09T18:12:00.854Z,7.20
2018-12-09T18:14:29.209Z,7.20
2018-12-09T18:16:57.459Z,7.20
2018-12-09T18:19:25.747Z,7.20
2018-12-09T18:21:54.134Z,7.20
2018-12-09T18:24:22.608Z,7.20
2018-12-09T18:26:51.028Z,7.30
2018-12-09T18:29:19.317Z,7.30
2018-12-09T18:31:47.625Z,7.30
2018-12-09T18:34:15.990Z,7.30
2018-12-09T18:36:44.426Z,7.30
2018-12-09T18:39:12.801Z,7.30
2018-12-09T18:41:41.154Z,7.20
2018-12-09T18:44:09.391Z,7.20
2018-12-09T18:46:37.661Z,7.20
2018-12-09T18:49:07.043Z,7.20
2018-12-09T18:51:35.748Z,7.20
2018-12-09T18:54:05.518Z,7.20
2018-12-09T18:56:33.884Z,7.20
2018-12-09T18:59:02.146Z,7.10
2018-12-09T19:01:30.421Z,7.10
2018-12-09T19:03:58.711Z,7.00
2018-12-09T19:06:27.046Z,7.00
2018-12-09T19:08:55.651Z,7.00
2018-12-09T19:11:24.020Z,7.00
2018-12-09T19:13:52.408Z,6.90
2018-12-09T19:16:20.827Z,7.00
2018-12-09T19:18:49.119Z,7.00
2018-12-09T19:21:17.439Z,6.90
2018-12-09T19:23:45.700Z,6.90
2018-12-09T19:26:14.028Z,6.90
2018-12-09T19:28:42.331Z,6.90
2018-12-09T19:31:10.680Z,6.90
2018-12-09T19:33:38.915Z,6.90
2018-12-09T19:36:07.168Z,6.90
2018-12-09T19:38:40.184Z,6.90
2018-12-09T19:41:05.731Z,7.00
2018-12-09T19:43:34.029Z,7.00
2018-12-09T19:46:02.330Z,7.10
2018-12-09T19:48:30.695Z,7.00
2018-12-09T19:50:58.999Z,7.00
2018-12-09T19:53:27.390Z,7.00
2018-12-09T19:55:55.744Z,7.00
2018-12-09T19:58:24.082Z,7.00
2018-12-09T20:00:52.415Z,7.00
2018-12-09T20:03:20.757Z,7.00
2018-12-09T20:05:49.037Z,7.00
2018-12-09T20:08:17.430Z,7.00
2018-12-09T20:10:45.759Z,7.00
2018-12-09T20:13:14.213Z,7.00
2018-12-09T20:15:42.675Z,7.00
2018-12-09T20:18:11.094Z,7.00
2018-12-09T20:20:39.511Z,7.00
2018-12-09T20:23:07.924Z,7.00
2018-12-09T20:25:36.264Z,6.90
2018-12-09T20:28:04.659Z,6.90
2018-12-09T20:30:32.991Z,6.80
2018-12-09T20:33:01.315Z,6.80
2018-12-09T20:35:29.607Z,6.70
2018-12-09T20:37:58.153Z,6.70
2018-12-09T20:40:26.628Z,6.60
2018-12-09T20:42:54.917Z,6.60
2018-12-09T20:45:23.280Z,6.60
2018-12-09T20:47:52.343Z,6.50
2018-12-09T20:50:20.631Z,6.50
2018-12-09T20:52:48.948Z,6.50
2018-12-09T20:55:17.260Z,6.50
2018-12-09T20:57:45.637Z,6.40
2018-12-09T21:00:14.034Z,6.40
2018-12-09T21:02:42.377Z,6.40
2018-12-09T21:05:10.676Z,6.50
2018-12-09T21:07:38.955Z,6.40
2018-12-09T21:10:09.615Z,6.40
2018-12-09T21:12:37.934Z,6.40
2018-12-09T21:15:06.891Z,6.40
2018-12-09T21:17:35.260Z,6.40
2018-12-09T21:20:03.586Z,6.40
2018-12-09T21:22:31.893Z,6.40
2018-12-09T21:25:00.271Z,6.40
2018-12-09T21:27:28.590Z,6.40
2018-12-09T21:29:56.887Z,6.30
2018-12-09T21:32:25.219Z,6.30
2018-12-09T21:34:53.621Z,6.30
2018-12-09T21:37:21.963Z,6.20
2018-12-09T21:39:50.267Z,6.20
2018-12-09T21:42:18.614Z,6.10
2018-12-09T21:44:47.008Z,6.10
2018-12-09T21:47:15.471Z,6.10
2018-12-09T21:49:43.789Z,6.10
2018-12-09T21:52:12.108Z,6.20
2018-12-09T21:54:40.486Z,6.20
2018-12-09T21:57:09.115Z,6.20
2018-12-09T21:59:37.380Z,6.20
2018-12-09T22:02:05.611Z,6.20
2018-12-09T22:04:33.949Z,6.20
2018-12-09T22:07:02.296Z,6.10
2018-12-09T22:09:30.546Z,6.10
2018-12-09T22:11:58.814Z,6.10
2018-12-09T22:14:27.252Z,6.10
2018-12-09T22:16:55.551Z,6.10
2018-12-09T22:19:23.930Z,6.00
2018-12-09T22:21:52.237Z,6.00
2018-12-09T22:24:20.750Z,6.00
2018-12-09T22:26:49.097Z,6.00
2018-12-09T22:29:17.422Z,6.00
2018-12-09T22:31:45.741Z,6.00
2018-12-09T22:34:14.035Z,6.00
2018-12-09T22:36:42.274Z,6.00
2018-12-09T22:39:10.614Z,6.00
2018-12-09T22:41:38.851Z,6.00
2018-12-09T22:44:07.191Z,6.00
2018-12-09T22:46:35.529Z,5.90
2018-12-09T22:49:03.864Z,5.80
2018-12-09T22:51:32.198Z,5.70
2018-12-09T22:54:00.442Z,5.60
2018-12-09T22:56:28.880Z,5.60
2018-12-09T22:58:57.220Z,5.50
2018-12-09T23:01:25.549Z,5.50
2018-12-09T23:03:53.798Z,5.40
2018-12-09T23:06:22.099Z,5.40
2018-12-09T23:08:50.375Z,5.50
2018-12-09T23:11:18.603Z,5.50
2018-12-09T23:13:46.882Z,5.50
2018-12-09T23:16:15.173Z,5.50
2018-12-09T23:18:43.530Z,5.50
2018-12-09T23:21:11.780Z,5.50
2018-12-09T23:23:40.093Z,5.60
2018-12-09T23:26:08.355Z,5.60
2018-12-09T23:28:36.731Z,5.60
2018-12-09T23:31:05.023Z,5.60
2018-12-09T23:33:33.266Z,5.70
2018-12-09T23:36:01.680Z,5.70
2018-12-09T23:38:30.111Z,5.70
2018-12-09T23:40:58.402Z,5.70
2018-12-09T23:43:26.689Z,5.70
2018-12-09T23:45:54.946Z,5.70
2018-12-09T23:48:23.214Z,5.70
2018-12-09T23:50:51.510Z,5.80
2018-12-09T23:53:19.851Z,5.70
2018-12-09T23:55:48.104Z,5.70
2018-12-09T23:58:16.366Z,5.60
